sensor_id;sensor_type;location;lat;lon;timestamp;P1;P2;P0
69222;PMS7003;56514;51.816;-0.026;2023-06-26T00:02:17;0.00;0.00;0.00
69222;PMS7003;56514;51.816;-0.026;2023-06-26T00:05:01;0.25;0.25;0.25
69222;PMS7003;56514;51.816;-0.026;2023-06-26T00:07:49;0.25;0.25;0.00
69222;PMS7003;56514;51.816;-0.026;2023-06-26T00:10:34;0.25;0.25;0.25
69222;PMS7003;56514;51.816;-0.026;2023-06-26T00:13:19;1.00;1.00;0.00
69222;PMS7003;56514;51.816;-0.026;2023-06-26T00:16:03;0.00;0.00;0.00
69222;PMS7003;56514;51.816;-0.026;2023-06-26T00:18:48;0.00;0.00;0.00
69222;PMS7003;56514;51.816;-0.026;2023-06-26T00:21:33;1.25;1.25;0.50
69222;PMS7003;56514;51.816;-0.026;2023-06-26T00:24:17;0.00;0.00;0.00
69222;PMS7003;56514;51.816;-0.026;2023-06-26T00:27:02;0.00;0.00;0.00
69222;PMS7003;56514;51.816;-0.026;2023-06-26T00:29:46;0.00;0.00;0.00
69222;PMS7003;56514;51.816;-0.026;2023-06-26T00:32:31;0.75;0.75;0.00
69222;PMS7003;56514;51.816;-0.026;2023-06-26T00:35:16;0.50;0.50;0.50
69222;PMS7003;56514;51.816;-0.026;2023-06-26T00:38:00;0.50;0.50;0.25
69222;PMS7003;56514;51.816;-0.026;2023-06-26T00:40:45;1.00;1.00;0.00
69222;PMS7003;56514;51.816;-0.026;2023-06-26T00:43:30;0.00;0.00;0.00
69222;PMS7003;56514;51.816;-0.026;2023-06-26T00:46:16;0.75;0.75;0.75
69222;PMS7003;56514;51.816;-0.026;2023-06-26T00:49:04;0.25;0.25;0.00
69222;PMS7003;56514;51.816;-0.026;2023-06-26T00:51:49;0.25;0.25;0.00
69222;PMS7003;56514;51.816;-0.026;2023-06-26T00:54:34;0.75;0.75;0.75
69222;PMS7003;56514;51.816;-0.026;2023-06-26T00:57:19;0.00;0.00;0.00
69222;PMS7003;56514;51.816;-0.026;2023-06-26T01:00:04;1.00;1.00;1.00
69222;PMS7003;56514;51.816;-0.026;2023-06-26T01:02:48;1.00;1.00;0.75
69222;PMS7003;56514;51.816;-0.026;2023-06-26T01:05:33;0.00;0.00;0.00
69222;PMS7003;56514;51.816;-0.026;2023-06-26T01:08:17;0.00;0.00;0.00
69222;PMS7003;56514;51.816;-0.026;2023-06-26T01:11:02;1.00;1.00;0.25
69222;PMS7003;56514;51.816;-0.026;2023-06-26T01:13:47;0.75;0.75;0.75
69222;PMS7003;56514;51.816;-0.026;2023-06-26T01:16:31;0.50;0.50;0.00
69222;PMS7003;56514;51.816;-0.026;2023-06-26T01:19:21;0.00;0.00;0.00
69222;PMS7003;56514;51.816;-0.026;2023-06-26T01:22:14;0.75;0.75;0.75
69222;PMS7003;56514;51.816;-0.026;2023-06-26T01:27:49;0.25;0.25;0.25
69222;PMS7003;56514;51.816;-0.026;2023-06-26T01:30:35;0.00;0.00;0.00
69222;PMS7003;56514;51.816;-0.026;2023-06-26T01:33:21;0.50;0.50;0.50
69222;PMS7003;56514;51.816;-0.026;2023-06-26T01:36:06;1.00;1.00;0.00
69222;PMS7003;56514;51.816;-0.026;2023-06-26T01:38:51;1.00;1.00;1.00
69222;PMS7003;56514;51.816;-0.026;2023-06-26T01:41:36;0.00;0.00;0.00
69222;PMS7003;56514;51.816;-0.026;2023-06-26T01:44:23;1.25;1.25;1.00
69222;PMS7003;56514;51.816;-0.026;2023-06-26T01:47:09;0.75;0.75;0.75
69222;PMS7003;56514;51.816;-0.026;2023-06-26T01:52:58;1.25;1.25;1.00
69222;PMS7003;56514;51.816;-0.026;2023-06-26T01:55:59;1.00;1.00;1.00
69222;PMS7003;56514;51.816;-0.026;2023-06-26T01:58:45;1.00;1.00;1.00
69222;PMS7003;56514;51.816;-0.026;2023-06-26T02:01:30;1.00;1.00;1.00
69222;PMS7003;56514;51.816;-0.026;2023-06-26T02:04:17;1.50;1.00;1.00
69222;PMS7003;56514;51.816;-0.026;2023-06-26T02:07:02;1.75;1.75;1.50
69222;PMS7003;56514;51.816;-0.026;2023-06-26T02:09:46;1.00;1.00;1.00
69222;PMS7003;56514;51.816;-0.026;2023-06-26T02:12:31;1.00;1.00;0.75
69222;PMS7003;56514;51.816;-0.026;2023-06-26T02:15:16;0.00;0.00;0.00
69222;PMS7003;56514;51.816;-0.026;2023-06-26T02:18:01;2.50;2.50;1.50
69222;PMS7003;56514;51.816;-0.026;2023-06-26T02:20:45;1.00;1.00;1.00
69222;PMS7003;56514;51.816;-0.026;2023-06-26T02:23:30;1.00;1.00;1.00
69222;PMS7003;56514;51.816;-0.026;2023-06-26T02:26:16;1.00;1.00;1.00
69222;PMS7003;56514;51.816;-0.026;2023-06-26T02:29:01;1.75;1.75;1.00
69222;PMS7003;56514;51.816;-0.026;2023-06-26T02:31:45;1.25;1.25;1.00
69222;PMS7003;56514;51.816;-0.026;2023-06-26T02:34:30;2.00;2.00;1.75
69222;PMS7003;56514;51.816;-0.026;2023-06-26T02:37:16;0.25;0.25;0.00
69222;PMS7003;56514;51.816;-0.026;2023-06-26T02:40:01;1.00;1.00;1.00
69222;PMS7003;56514;51.816;-0.026;2023-06-26T02:42:45;1.00;1.00;1.00
69222;PMS7003;56514;51.816;-0.026;2023-06-26T02:45:30;0.75;0.75;0.75
69222;PMS7003;56514;51.816;-0.026;2023-06-26T02:48:14;1.00;1.00;1.00
69222;PMS7003;56514;51.816;-0.026;2023-06-26T02:50:59;1.00;1.00;1.00
69222;PMS7003;56514;51.816;-0.026;2023-06-26T02:53:43;1.00;1.00;1.00
69222;PMS7003;56514;51.816;-0.026;2023-06-26T02:56:28;1.00;1.00;1.00
69222;PMS7003;56514;51.816;-0.026;2023-06-26T02:59:12;1.00;1.00;1.00
69222;PMS7003;56514;51.816;-0.026;2023-06-26T03:01:57;1.00;1.00;0.25
69222;PMS7003;56514;51.816;-0.026;2023-06-26T03:04:42;2.00;2.00;2.00
69222;PMS7003;56514;51.816;-0.026;2023-06-26T03:07:27;0.50;0.50;0.50
69222;PMS7003;56514;51.816;-0.026;2023-06-26T03:10:11;2.00;2.00;2.00
69222;PMS7003;56514;51.816;-0.026;2023-06-26T03:12:56;2.00;2.00;1.00
69222;PMS7003;56514;51.816;-0.026;2023-06-26T03:15:40;0.75;0.75;0.00
69222;PMS7003;56514;51.816;-0.026;2023-06-26T03:18:25;0.50;0.50;0.50
69222;PMS7003;56514;51.816;-0.026;2023-06-26T03:21:10;1.00;1.00;0.75
69222;PMS7003;56514;51.816;-0.026;2023-06-26T03:23:54;1.75;1.75;1.00
69222;PMS7003;56514;51.816;-0.026;2023-06-26T03:26:39;1.00;1.00;1.00
69222;PMS7003;56514;51.816;-0.026;2023-06-26T03:29:23;2.00;2.00;1.00
69222;PMS7003;56514;51.816;-0.026;2023-06-26T03:32:08;0.75;0.75;0.75
69222;PMS7003;56514;51.816;-0.026;2023-06-26T03:34:53;1.00;1.00;1.00
69222;PMS7003;56514;51.816;-0.026;2023-06-26T03:37:37;2.75;2.75;2.00
69222;PMS7003;56514;51.816;-0.026;2023-06-26T03:40:22;0.00;0.00;0.00
69222;PMS7003;56514;51.816;-0.026;2023-06-26T03:43:06;1.25;1.25;0.50
69222;PMS7003;56514;51.816;-0.026;2023-06-26T03:45:51;2.00;2.00;1.25
69222;PMS7003;56514;51.816;-0.026;2023-06-26T03:48:35;1.50;1.50;1.00
69222;PMS7003;56514;51.816;-0.026;2023-06-26T03:51:21;0.75;0.75;0.50
69222;PMS7003;56514;51.816;-0.026;2023-06-26T03:54:06;1.75;1.75;1.00
69222;PMS7003;56514;51.816;-0.026;2023-06-26T03:56:51;2.00;2.00;1.75
69222;PMS7003;56514;51.816;-0.026;2023-06-26T03:59:36;1.00;1.00;1.00
69222;PMS7003;56514;51.816;-0.026;2023-06-26T04:02:20;1.00;1.00;1.00
69222;PMS7003;56514;51.816;-0.026;2023-06-26T04:05:05;1.00;1.00;0.75
69222;PMS7003;56514;51.816;-0.026;2023-06-26T04:07:50;2.00;2.00;1.00
69222;PMS7003;56514;51.816;-0.026;2023-06-26T04:10:35;1.50;1.50;1.50
69222;PMS7003;56514;51.816;-0.026;2023-06-26T04:13:23;1.00;1.00;1.00
69222;PMS7003;56514;51.816;-0.026;2023-06-26T04:16:07;1.00;1.00;1.00
69222;PMS7003;56514;51.816;-0.026;2023-06-26T04:18:52;2.75;2.75;2.00
69222;PMS7003;56514;51.816;-0.026;2023-06-26T04:21:37;1.00;1.00;1.00
69222;PMS7003;56514;51.816;-0.026;2023-06-26T04:24:22;1.25;1.00;1.00
69222;PMS7003;56514;51.816;-0.026;2023-06-26T04:27:07;2.00;2.00;1.00
69222;PMS7003;56514;51.816;-0.026;2023-06-26T04:29:51;1.00;1.00;1.00
69222;PMS7003;56514;51.816;-0.026;2023-06-26T04:32:36;2.00;2.00;1.75
69222;PMS7003;56514;51.816;-0.026;2023-06-26T04:35:20;1.00;1.00;1.00
69222;PMS7003;56514;51.816;-0.026;2023-06-26T04:38:05;1.50;1.50;1.00
69222;PMS7003;56514;51.816;-0.026;2023-06-26T04:40:50;1.25;1.25;0.75
69222;PMS7003;56514;51.816;-0.026;2023-06-26T04:43:34;1.00;1.00;1.00
69222;PMS7003;56514;51.816;-0.026;2023-06-26T04:46:19;2.00;2.00;2.00
69222;PMS7003;56514;51.816;-0.026;2023-06-26T04:49:03;2.25;2.25;1.50
69222;PMS7003;56514;51.816;-0.026;2023-06-26T04:51:48;2.00;2.00;2.00
69222;PMS7003;56514;51.816;-0.026;2023-06-26T04:54:34;1.25;1.25;1.00
69222;PMS7003;56514;51.816;-0.026;2023-06-26T04:57:19;1.00;1.00;1.00
69222;PMS7003;56514;51.816;-0.026;2023-06-26T05:00:04;1.75;1.75;1.25
69222;PMS7003;56514;51.816;-0.026;2023-06-26T05:02:55;1.50;1.50;1.50
69222;PMS7003;56514;51.816;-0.026;2023-06-26T05:05:44;2.25;2.00;2.00
69222;PMS7003;56514;51.816;-0.026;2023-06-26T05:08:29;1.75;1.75;1.00
69222;PMS7003;56514;51.816;-0.026;2023-06-26T05:11:13;2.00;2.00;1.50
69222;PMS7003;56514;51.816;-0.026;2023-06-26T05:13:58;2.75;2.75;2.00
69222;PMS7003;56514;51.816;-0.026;2023-06-26T05:16:43;2.00;2.00;2.00
69222;PMS7003;56514;51.816;-0.026;2023-06-26T05:19:27;2.00;2.00;2.00
69222;PMS7003;56514;51.816;-0.026;2023-06-26T05:22:12;2.25;2.25;2.00
69222;PMS7003;56514;51.816;-0.026;2023-06-26T05:24:57;4.00;4.00;2.00
69222;PMS7003;56514;51.816;-0.026;2023-06-26T05:27:43;1.75;1.75;1.75
69222;PMS7003;56514;51.816;-0.026;2023-06-26T05:30:28;1.75;1.75;1.00
69222;PMS7003;56514;51.816;-0.026;2023-06-26T05:33:13;2.50;2.50;2.00
69222;PMS7003;56514;51.816;-0.026;2023-06-26T05:36:05;2.25;2.25;2.25
69222;PMS7003;56514;51.816;-0.026;2023-06-26T05:38:51;1.00;1.00;1.00
69222;PMS7003;56514;51.816;-0.026;2023-06-26T05:41:36;1.25;1.25;1.00
69222;PMS7003;56514;51.816;-0.026;2023-06-26T05:44:20;1.25;1.25;1.25
69222;PMS7003;56514;51.816;-0.026;2023-06-26T05:47:05;1.00;1.00;1.00
69222;PMS7003;56514;51.816;-0.026;2023-06-26T05:49:50;3.00;3.00;2.00
69222;PMS7003;56514;51.816;-0.026;2023-06-26T05:52:35;2.25;1.00;0.00
69222;PMS7003;56514;51.816;-0.026;2023-06-26T05:55:20;2.00;2.00;2.00
69222;PMS7003;56514;51.816;-0.026;2023-06-26T05:58:05;2.00;2.00;2.00
69222;PMS7003;56514;51.816;-0.026;2023-06-26T06:00:50;2.25;2.25;1.75
69222;PMS7003;56514;51.816;-0.026;2023-06-26T06:03:34;2.00;2.00;2.00
69222;PMS7003;56514;51.816;-0.026;2023-06-26T06:06:19;2.00;2.00;1.75
69222;PMS7003;56514;51.816;-0.026;2023-06-26T06:09:03;2.00;2.00;1.50
69222;PMS7003;56514;51.816;-0.026;2023-06-26T06:11:48;3.50;2.50;1.00
69222;PMS7003;56514;51.816;-0.026;2023-06-26T06:14:33;1.00;1.00;1.00
69222;PMS7003;56514;51.816;-0.026;2023-06-26T06:17:18;2.00;2.00;1.50
69222;PMS7003;56514;51.816;-0.026;2023-06-26T06:20:03;0.50;0.50;0.50
69222;PMS7003;56514;51.816;-0.026;2023-06-26T06:22:48;2.00;2.00;1.25
69222;PMS7003;56514;51.816;-0.026;2023-06-26T06:25:32;1.75;1.75;1.25
69222;PMS7003;56514;51.816;-0.026;2023-06-26T06:28:17;1.00;1.00;1.00
69222;PMS7003;56514;51.816;-0.026;2023-06-26T06:31:01;2.00;2.00;2.00
69222;PMS7003;56514;51.816;-0.026;2023-06-26T06:33:46;1.75;1.75;1.75
69222;PMS7003;56514;51.816;-0.026;2023-06-26T06:36:31;1.25;1.25;1.00
69222;PMS7003;56514;51.816;-0.026;2023-06-26T06:39:16;1.00;1.00;1.00
69222;PMS7003;56514;51.816;-0.026;2023-06-26T06:42:01;1.00;1.00;1.00
69222;PMS7003;56514;51.816;-0.026;2023-06-26T06:44:45;1.00;1.00;1.00
69222;PMS7003;56514;51.816;-0.026;2023-06-26T06:47:30;1.00;1.00;1.00
69222;PMS7003;56514;51.816;-0.026;2023-06-26T06:50:15;1.00;1.00;1.00
69222;PMS7003;56514;51.816;-0.026;2023-06-26T06:53:00;1.25;1.25;1.25
69222;PMS7003;56514;51.816;-0.026;2023-06-26T06:55:44;0.00;0.00;0.00
69222;PMS7003;56514;51.816;-0.026;2023-06-26T06:58:29;1.00;1.00;1.00
69222;PMS7003;56514;51.816;-0.026;2023-06-26T07:01:18;0.00;0.00;0.00
69222;PMS7003;56514;51.816;-0.026;2023-06-26T07:04:02;1.00;1.00;0.25
69222;PMS7003;56514;51.816;-0.026;2023-06-26T07:06:48;1.00;1.00;1.00
69222;PMS7003;56514;51.816;-0.026;2023-06-26T07:09:32;1.00;1.00;0.75
69222;PMS7003;56514;51.816;-0.026;2023-06-26T07:12:17;0.75;0.75;0.75
69222;PMS7003;56514;51.816;-0.026;2023-06-26T07:15:02;1.25;1.25;1.25
69222;PMS7003;56514;51.816;-0.026;2023-06-26T07:17:47;1.00;1.00;1.00
69222;PMS7003;56514;51.816;-0.026;2023-06-26T07:20:31;0.00;0.00;0.00
69222;PMS7003;56514;51.816;-0.026;2023-06-26T07:23:16;1.00;1.00;1.00
69222;PMS7003;56514;51.816;-0.026;2023-06-26T07:26:02;1.25;1.25;1.00
69222;PMS7003;56514;51.816;-0.026;2023-06-26T07:28:46;2.00;2.00;1.75
69222;PMS7003;56514;51.816;-0.026;2023-06-26T07:31:31;1.00;1.00;1.00
69222;PMS7003;56514;51.816;-0.026;2023-06-26T07:34:16;1.25;1.25;1.00
69222;PMS7003;56514;51.816;-0.026;2023-06-26T07:37:01;0.00;0.00;0.00
69222;PMS7003;56514;51.816;-0.026;2023-06-26T07:39:45;1.00;1.00;1.00
69222;PMS7003;56514;51.816;-0.026;2023-06-26T07:42:30;0.00;0.00;0.00
69222;PMS7003;56514;51.816;-0.026;2023-06-26T07:45:18;1.00;1.00;1.00
69222;PMS7003;56514;51.816;-0.026;2023-06-26T07:48:03;2.00;2.00;1.00
69222;PMS7003;56514;51.816;-0.026;2023-06-26T07:50:48;0.00;0.00;0.00
69222;PMS7003;56514;51.816;-0.026;2023-06-26T07:53:32;0.00;0.00;0.00
69222;PMS7003;56514;51.816;-0.026;2023-06-26T07:56:17;1.00;1.00;1.00
69222;PMS7003;56514;51.816;-0.026;2023-06-26T07:59:01;0.00;0.00;0.00
69222;PMS7003;56514;51.816;-0.026;2023-06-26T08:01:52;0.75;0.75;0.75
69222;PMS7003;56514;51.816;-0.026;2023-06-26T08:04:36;0.25;0.25;0.00
69222;PMS7003;56514;51.816;-0.026;2023-06-26T08:07:21;1.00;1.00;0.50
69222;PMS7003;56514;51.816;-0.026;2023-06-26T08:10:05;1.00;1.00;0.50
69222;PMS7003;56514;51.816;-0.026;2023-06-26T08:12:50;1.00;1.00;1.00
69222;PMS7003;56514;51.816;-0.026;2023-06-26T08:15:35;0.25;0.25;0.25
69222;PMS7003;56514;51.816;-0.026;2023-06-26T08:18:20;0.75;0.75;0.50
69222;PMS7003;56514;51.816;-0.026;2023-06-26T08:21:05;0.00;0.00;0.00
69222;PMS7003;56514;51.816;-0.026;2023-06-26T08:23:49;0.25;0.25;0.00
69222;PMS7003;56514;51.816;-0.026;2023-06-26T08:26:34;0.25;0.25;0.25
69222;PMS7003;56514;51.816;-0.026;2023-06-26T08:29:19;0.00;0.00;0.00
69222;PMS7003;56514;51.816;-0.026;2023-06-26T08:32:03;0.00;0.00;0.00
69222;PMS7003;56514;51.816;-0.026;2023-06-26T08:34:48;0.00;0.00;0.00
69222;PMS7003;56514;51.816;-0.026;2023-06-26T08:37:32;0.00;0.00;0.00
69222;PMS7003;56514;51.816;-0.026;2023-06-26T08:40:17;0.00;0.00;0.00
69222;PMS7003;56514;51.816;-0.026;2023-06-26T08:43:05;0.00;0.00;0.00
69222;PMS7003;56514;51.816;-0.026;2023-06-26T08:45:49;0.00;0.00;0.00
69222;PMS7003;56514;51.816;-0.026;2023-06-26T08:48:37;0.00;0.00;0.00
69222;PMS7003;56514;51.816;-0.026;2023-06-26T08:51:24;0.25;0.25;0.00
69222;PMS7003;56514;51.816;-0.026;2023-06-26T08:54:10;0.00;0.00;0.00
69222;PMS7003;56514;51.816;-0.026;2023-06-26T08:56:56;0.00;0.00;0.00
69222;PMS7003;56514;51.816;-0.026;2023-06-26T08:59:42;0.00;0.00;0.00
69222;PMS7003;56514;51.816;-0.026;2023-06-26T09:02:26;0.00;0.00;0.00
69222;PMS7003;56514;51.816;-0.026;2023-06-26T09:05:11;0.00;0.00;0.00
69222;PMS7003;56514;51.816;-0.026;2023-06-26T09:07:56;0.00;0.00;0.00
69222;PMS7003;56514;51.816;-0.026;2023-06-26T09:10:41;0.50;0.50;0.00
69222;PMS7003;56514;51.816;-0.026;2023-06-26T09:13:25;0.25;0.25;0.00
69222;PMS7003;56514;51.816;-0.026;2023-06-26T09:16:18;0.00;0.00;0.00
69222;PMS7003;56514;51.816;-0.026;2023-06-26T09:19:08;0.00;0.00;0.00
69222;PMS7003;56514;51.816;-0.026;2023-06-26T09:21:53;0.25;0.25;0.00
69222;PMS7003;56514;51.816;-0.026;2023-06-26T09:24:38;0.00;0.00;0.00
69222;PMS7003;56514;51.816;-0.026;2023-06-26T09:27:25;0.00;0.00;0.00
69222;PMS7003;56514;51.816;-0.026;2023-06-26T09:30:09;1.00;1.00;1.00
69222;PMS7003;56514;51.816;-0.026;2023-06-26T09:32:54;0.00;0.00;0.00
69222;PMS7003;56514;51.816;-0.026;2023-06-26T09:35:39;1.00;1.00;1.00
69222;PMS7003;56514;51.816;-0.026;2023-06-26T09:38:23;0.25;0.25;0.00
69222;PMS7003;56514;51.816;-0.026;2023-06-26T09:41:08;0.00;0.00;0.00
69222;PMS7003;56514;51.816;-0.026;2023-06-26T09:43:52;0.00;0.00;0.00
69222;PMS7003;56514;51.816;-0.026;2023-06-26T09:46:37;0.00;0.00;0.00
69222;PMS7003;56514;51.816;-0.026;2023-06-26T09:49:23;0.00;0.00;0.00
69222;PMS7003;56514;51.816;-0.026;2023-06-26T09:52:08;0.00;0.00;0.00
69222;PMS7003;56514;51.816;-0.026;2023-06-26T09:55:07;0.00;0.00;0.00
69222;PMS7003;56514;51.816;-0.026;2023-06-26T09:57:52;0.00;0.00;0.00
69222;PMS7003;56514;51.816;-0.026;2023-06-26T10:00:36;0.25;0.25;0.25
69222;PMS7003;56514;51.816;-0.026;2023-06-26T10:03:20;0.00;0.00;0.00
69222;PMS7003;56514;51.816;-0.026;2023-06-26T10:06:05;0.00;0.00;0.00
69222;PMS7003;56514;51.816;-0.026;2023-06-26T10:08:51;0.00;0.00;0.00
69222;PMS7003;56514;51.816;-0.026;2023-06-26T10:11:47;0.00;0.00;0.00
69222;PMS7003;56514;51.816;-0.026;2023-06-26T10:14:34;0.00;0.00;0.00
69222;PMS7003;56514;51.816;-0.026;2023-06-26T10:17:20;0.00;0.00;0.00
69222;PMS7003;56514;51.816;-0.026;2023-06-26T10:20:07;0.00;0.00;0.00
69222;PMS7003;56514;51.816;-0.026;2023-06-26T10:22:53;0.00;0.00;0.00
69222;PMS7003;56514;51.816;-0.026;2023-06-26T10:25:40;0.50;0.50;0.50
69222;PMS7003;56514;51.816;-0.026;2023-06-26T10:28:29;0.25;0.25;0.25
69222;PMS7003;56514;51.816;-0.026;2023-06-26T10:31:18;0.00;0.00;0.00
69222;PMS7003;56514;51.816;-0.026;2023-06-26T10:34:06;0.00;0.00;0.00
69222;PMS7003;56514;51.816;-0.026;2023-06-26T10:37:01;0.00;0.00;0.00
69222;PMS7003;56514;51.816;-0.026;2023-06-26T10:42:35;0.00;0.00;0.00
69222;PMS7003;56514;51.816;-0.026;2023-06-26T10:45:20;0.00;0.00;0.00
69222;PMS7003;56514;51.816;-0.026;2023-06-26T10:48:04;0.00;0.00;0.00
69222;PMS7003;56514;51.816;-0.026;2023-06-26T10:50:49;0.00;0.00;0.00
69222;PMS7003;56514;51.816;-0.026;2023-06-26T10:53:34;0.00;0.00;0.00
69222;PMS7003;56514;51.816;-0.026;2023-06-26T10:56:19;0.00;0.00;0.00
69222;PMS7003;56514;51.816;-0.026;2023-06-26T10:59:14;0.25;0.25;0.25
69222;PMS7003;56514;51.816;-0.026;2023-06-26T11:02:03;0.00;0.00;0.00
69222;PMS7003;56514;51.816;-0.026;2023-06-26T11:04:51;0.00;0.00;0.00
69222;PMS7003;56514;51.816;-0.026;2023-06-26T11:07:39;0.75;0.75;0.25
69222;PMS7003;56514;51.816;-0.026;2023-06-26T11:10:51;0.00;0.00;0.00
69222;PMS7003;56514;51.816;-0.026;2023-06-26T11:13:35;0.00;0.00;0.00
69222;PMS7003;56514;51.816;-0.026;2023-06-26T11:16:21;0.00;0.00;0.00
69222;PMS7003;56514;51.816;-0.026;2023-06-26T11:19:06;0.00;0.00;0.00
69222;PMS7003;56514;51.816;-0.026;2023-06-26T11:21:50;0.00;0.00;0.00
69222;PMS7003;56514;51.816;-0.026;2023-06-26T11:24:35;0.00;0.00;0.00
69222;PMS7003;56514;51.816;-0.026;2023-06-26T11:27:20;0.00;0.00;0.00
69222;PMS7003;56514;51.816;-0.026;2023-06-26T11:30:09;0.00;0.00;0.00
69222;PMS7003;56514;51.816;-0.026;2023-06-26T11:33:02;0.00;0.00;0.00
69222;PMS7003;56514;51.816;-0.026;2023-06-26T11:35:46;0.00;0.00;0.00
69222;PMS7003;56514;51.816;-0.026;2023-06-26T11:38:36;0.25;0.25;0.00
69222;PMS7003;56514;51.816;-0.026;2023-06-26T11:41:21;0.50;0.50;0.50
69222;PMS7003;56514;51.816;-0.026;2023-06-26T11:44:06;0.00;0.00;0.00
69222;PMS7003;56514;51.816;-0.026;2023-06-26T11:46:51;0.00;0.00;0.00
69222;PMS7003;56514;51.816;-0.026;2023-06-26T11:49:36;1.00;1.00;0.00
69222;PMS7003;56514;51.816;-0.026;2023-06-26T11:52:20;0.00;0.00;0.00
69222;PMS7003;56514;51.816;-0.026;2023-06-26T11:55:05;1.00;1.00;0.00
69222;PMS7003;56514;51.816;-0.026;2023-06-26T11:57:52;0.00;0.00;0.00
69222;PMS7003;56514;51.816;-0.026;2023-06-26T12:00:43;0.00;0.00;0.00
69222;PMS7003;56514;51.816;-0.026;2023-06-26T12:03:31;1.00;1.00;1.00
69222;PMS7003;56514;51.816;-0.026;2023-06-26T12:06:17;0.00;0.00;0.00
69222;PMS7003;56514;51.816;-0.026;2023-06-26T12:09:02;0.00;0.00;0.00
69222;PMS7003;56514;51.816;-0.026;2023-06-26T12:11:51;0.25;0.25;0.25
69222;PMS7003;56514;51.816;-0.026;2023-06-26T12:14:36;0.00;0.00;0.00
69222;PMS7003;56514;51.816;-0.026;2023-06-26T12:17:22;0.00;0.00;0.00
69222;PMS7003;56514;51.816;-0.026;2023-06-26T12:20:28;0.00;0.00;0.00
69222;PMS7003;56514;51.816;-0.026;2023-06-26T12:23:18;0.00;0.00;0.00
69222;PMS7003;56514;51.816;-0.026;2023-06-26T12:26:18;0.00;0.00;0.00
69222;PMS7003;56514;51.816;-0.026;2023-06-26T12:29:07;1.00;1.00;0.00
69222;PMS7003;56514;51.816;-0.026;2023-06-26T12:31:52;0.00;0.00;0.00
69222;PMS7003;56514;51.816;-0.026;2023-06-26T12:34:38;0.00;0.00;0.00
69222;PMS7003;56514;51.816;-0.026;2023-06-26T12:37:23;0.00;0.00;0.00
69222;PMS7003;56514;51.816;-0.026;2023-06-26T12:40:18;0.00;0.00;0.00
69222;PMS7003;56514;51.816;-0.026;2023-06-26T12:43:10;0.00;0.00;0.00
69222;PMS7003;56514;51.816;-0.026;2023-06-26T12:45:55;1.00;1.00;1.00
69222;PMS7003;56514;51.816;-0.026;2023-06-26T12:48:44;0.00;0.00;0.00
69222;PMS7003;56514;51.816;-0.026;2023-06-26T12:51:30;0.00;0.00;0.00
69222;PMS7003;56514;51.816;-0.026;2023-06-26T12:54:18;0.25;0.25;0.25
69222;PMS7003;56514;51.816;-0.026;2023-06-26T12:57:04;1.00;1.00;1.00
69222;PMS7003;56514;51.816;-0.026;2023-06-26T12:59:49;0.00;0.00;0.00
69222;PMS7003;56514;51.816;-0.026;2023-06-26T13:02:34;0.00;0.00;0.00
69222;PMS7003;56514;51.816;-0.026;2023-06-26T13:05:18;0.00;0.00;0.00
69222;PMS7003;56514;51.816;-0.026;2023-06-26T13:08:03;0.00;0.00;0.00
69222;PMS7003;56514;51.816;-0.026;2023-06-26T13:10:48;0.00;0.00;0.00
69222;PMS7003;56514;51.816;-0.026;2023-06-26T13:13:32;0.00;0.00;0.00
69222;PMS7003;56514;51.816;-0.026;2023-06-26T13:16:17;0.00;0.00;0.00
69222;PMS7003;56514;51.816;-0.026;2023-06-26T13:19:02;0.00;0.00;0.00
69222;PMS7003;56514;51.816;-0.026;2023-06-26T13:21:47;0.00;0.00;0.00
69222;PMS7003;56514;51.816;-0.026;2023-06-26T13:24:31;0.00;0.00;0.00
69222;PMS7003;56514;51.816;-0.026;2023-06-26T13:27:16;0.00;0.00;0.00
69222;PMS7003;56514;51.816;-0.026;2023-06-26T13:30:01;0.00;0.00;0.00
69222;PMS7003;56514;51.816;-0.026;2023-06-26T13:32:46;0.00;0.00;0.00
69222;PMS7003;56514;51.816;-0.026;2023-06-26T13:35:31;0.00;0.00;0.00
69222;PMS7003;56514;51.816;-0.026;2023-06-26T13:38:16;0.00;0.00;0.00
69222;PMS7003;56514;51.816;-0.026;2023-06-26T13:41:02;0.00;0.00;0.00
69222;PMS7003;56514;51.816;-0.026;2023-06-26T13:43:46;1.00;1.00;0.00
69222;PMS7003;56514;51.816;-0.026;2023-06-26T13:46:31;0.00;0.00;0.00
69222;PMS7003;56514;51.816;-0.026;2023-06-26T13:49:17;0.00;0.00;0.00
69222;PMS7003;56514;51.816;-0.026;2023-06-26T13:52:02;1.00;1.00;1.00
69222;PMS7003;56514;51.816;-0.026;2023-06-26T13:54:46;0.00;0.00;0.00
69222;PMS7003;56514;51.816;-0.026;2023-06-26T13:57:31;0.00;0.00;0.00
69222;PMS7003;56514;51.816;-0.026;2023-06-26T14:00:16;0.00;0.00;0.00
69222;PMS7003;56514;51.816;-0.026;2023-06-26T14:03:04;0.00;0.00;0.00
69222;PMS7003;56514;51.816;-0.026;2023-06-26T14:05:50;0.00;0.00;0.00
69222;PMS7003;56514;51.816;-0.026;2023-06-26T14:08:35;0.00;0.00;0.00
69222;PMS7003;56514;51.816;-0.026;2023-06-26T14:11:19;0.00;0.00;0.00
69222;PMS7003;56514;51.816;-0.026;2023-06-26T14:14:04;0.00;0.00;0.00
69222;PMS7003;56514;51.816;-0.026;2023-06-26T14:16:48;0.25;0.25;0.25
69222;PMS7003;56514;51.816;-0.026;2023-06-26T14:19:33;1.00;1.00;1.00
69222;PMS7003;56514;51.816;-0.026;2023-06-26T14:22:20;0.00;0.00;0.00
69222;PMS7003;56514;51.816;-0.026;2023-06-26T14:25:05;0.00;0.00;0.00
69222;PMS7003;56514;51.816;-0.026;2023-06-26T14:27:50;0.00;0.00;0.00
69222;PMS7003;56514;51.816;-0.026;2023-06-26T14:30:34;0.50;0.50;0.00
69222;PMS7003;56514;51.816;-0.026;2023-06-26T14:33:19;0.00;0.00;0.00
69222;PMS7003;56514;51.816;-0.026;2023-06-26T14:36:04;0.00;0.00;0.00
69222;PMS7003;56514;51.816;-0.026;2023-06-26T14:38:48;0.00;0.00;0.00
69222;PMS7003;56514;51.816;-0.026;2023-06-26T14:41:33;0.00;0.00;0.00
69222;PMS7003;56514;51.816;-0.026;2023-06-26T14:44:18;0.00;0.00;0.00
69222;PMS7003;56514;51.816;-0.026;2023-06-26T14:47:02;0.25;0.25;0.00
69222;PMS7003;56514;51.816;-0.026;2023-06-26T14:49:47;0.00;0.00;0.00
69222;PMS7003;56514;51.816;-0.026;2023-06-26T14:52:32;0.00;0.00;0.00
69222;PMS7003;56514;51.816;-0.026;2023-06-26T14:55:16;0.00;0.00;0.00
69222;PMS7003;56514;51.816;-0.026;2023-06-26T14:58:01;0.00;0.00;0.00
69222;PMS7003;56514;51.816;-0.026;2023-06-26T15:00:46;0.00;0.00;0.00
69222;PMS7003;56514;51.816;-0.026;2023-06-26T15:03:30;0.00;0.00;0.00
69222;PMS7003;56514;51.816;-0.026;2023-06-26T15:06:18;0.00;0.00;0.00
69222;PMS7003;56514;51.816;-0.026;2023-06-26T15:09:03;0.00;0.00;0.00
69222;PMS7003;56514;51.816;-0.026;2023-06-26T15:11:48;1.00;1.00;1.00
69222;PMS7003;56514;51.816;-0.026;2023-06-26T15:14:32;0.00;0.00;0.00
69222;PMS7003;56514;51.816;-0.026;2023-06-26T15:17:17;0.00;0.00;0.00
69222;PMS7003;56514;51.816;-0.026;2023-06-26T15:20:02;0.00;0.00;0.00
69222;PMS7003;56514;51.816;-0.026;2023-06-26T15:22:47;0.00;0.00;0.00
69222;PMS7003;56514;51.816;-0.026;2023-06-26T15:25:31;0.25;0.25;0.00
69222;PMS7003;56514;51.816;-0.026;2023-06-26T15:28:16;0.00;0.00;0.00
69222;PMS7003;56514;51.816;-0.026;2023-06-26T15:31:01;0.00;0.00;0.00
69222;PMS7003;56514;51.816;-0.026;2023-06-26T15:33:45;0.00;0.00;0.00
69222;PMS7003;56514;51.816;-0.026;2023-06-26T15:36:30;0.00;0.00;0.00
69222;PMS7003;56514;51.816;-0.026;2023-06-26T15:39:18;0.00;0.00;0.00
69222;PMS7003;56514;51.816;-0.026;2023-06-26T15:42:03;0.00;0.00;0.00
69222;PMS7003;56514;51.816;-0.026;2023-06-26T15:44:47;0.00;0.00;0.00
69222;PMS7003;56514;51.816;-0.026;2023-06-26T15:47:32;0.25;0.25;0.00
69222;PMS7003;56514;51.816;-0.026;2023-06-26T15:50:17;0.00;0.00;0.00
69222;PMS7003;56514;51.816;-0.026;2023-06-26T15:53:02;0.00;0.00;0.00
69222;PMS7003;56514;51.816;-0.026;2023-06-26T15:55:47;0.00;0.00;0.00
69222;PMS7003;56514;51.816;-0.026;2023-06-26T15:58:32;0.00;0.00;0.00
69222;PMS7003;56514;51.816;-0.026;2023-06-26T16:01:17;0.00;0.00;0.00
69222;PMS7003;56514;51.816;-0.026;2023-06-26T16:04:02;0.00;0.00;0.00